UAL38 RJTT-KLAX
Flight info
| Callsign | UAL38 |
|---|---|
| Flight time | N/A |
| Altitude | 33000 |
| Route | INUBO Y808 NOLAX Y812 ADNAP R591 ADGOR AGEDI AKISU DCT ASPIN/N0492F350 DCT 51N170E 52N180E 52N170W 52N160W 50N150W 45N140W/N0482F370 40N130W DCT DACEM DCT PAINT DCT PIRAT DCT BURGL IRNMN2 |
| Aircraft | B77W/H-SDE1E2E3FGHIJ2J3J4J5M1RWXY/LB1D1 |
Departure
| Time | N/A |
|---|---|
| Airport | Tokyo Haneda International Airport (RJTT) |
Arrival
| Time | 2026-04-25 01:31 |
|---|---|
| Airport | Los Angeles International Airport (KLAX) |
| Time | Latitude | Longitude | Altitude | Speed | Heading |
|---|---|---|---|---|---|
| 2026-04-25 00:52 | 36.47871 | -121.48679 | 36998 ft | 524 kts | 131° |
| 2026-04-25 00:52 | 36.43614 | -121.41315 | 36996 ft | 525 kts | 131° |
| 2026-04-25 00:53 | 36.39332 | -121.33929 | 36983 ft | 527 kts | 131° |
| 2026-04-25 00:53 | 36.35035 | -121.26533 | 36971 ft | 529 kts | 131° |
| 2026-04-25 00:54 | 36.30752 | -121.19175 | 36957 ft | 530 kts | 131° |
| 2026-04-25 00:54 | 36.26434 | -121.11773 | 36951 ft | 530 kts | 131° |
| 2026-04-25 00:55 | 36.22104 | -121.04365 | 36941 ft | 531 kts | 131° |
| 2026-04-25 00:55 | 36.17773 | -120.96972 | 36937 ft | 531 kts | 131° |
| 2026-04-25 00:56 | 36.13432 | -120.89577 | 36937 ft | 530 kts | 131° |
| 2026-04-25 00:56 | 36.09086 | -120.82193 | 36926 ft | 530 kts | 132° |
| 2026-04-25 00:57 | 36.04768 | -120.74869 | 36924 ft | 529 kts | 132° |
| 2026-04-25 00:57 | 36.00431 | -120.67529 | 36926 ft | 529 kts | 132° |
| 2026-04-25 00:58 | 35.96083 | -120.60188 | 36935 ft | 529 kts | 132° |
| 2026-04-25 00:58 | 35.91735 | -120.52861 | 36932 ft | 529 kts | 132° |
| 2026-04-25 00:59 | 35.87380 | -120.45538 | 36933 ft | 529 kts | 132° |
| 2026-04-25 00:59 | 35.83050 | -120.38272 | 36940 ft | 529 kts | 133° |
| 2026-04-25 01:00 | 35.78676 | -120.30948 | 36940 ft | 530 kts | 133° |
| 2026-04-25 01:00 | 35.74293 | -120.23624 | 36922 ft | 532 kts | 133° |
| 2026-04-25 01:01 | 35.69890 | -120.16276 | 36881 ft | 532 kts | 133° |
| 2026-04-25 01:01 | 35.65176 | -120.09463 | 36904 ft | 513 kts | 151° |
| 2026-04-25 01:01 | 35.62205 | -120.07131 | 36924 ft | 500 kts | 158° |
| 2026-04-25 01:02 | 35.59224 | -120.05008 | 36909 ft | 502 kts | 159° |
| 2026-04-25 01:02 | 35.53178 | -120.00656 | 36915 ft | 506 kts | 158° |
| 2026-04-25 01:03 | 35.47115 | -119.96134 | 36919 ft | 510 kts | 157° |
| 2026-04-25 01:03 | 35.41059 | -119.91562 | 36891 ft | 511 kts | 157° |
| 2026-04-25 01:04 | 35.34992 | -119.86998 | 36899 ft | 511 kts | 157° |
| 2026-04-25 01:04 | 35.28899 | -119.82436 | 36018 ft | 524 kts | 156° |
| 2026-04-25 01:04 | 35.25852 | -119.79915 | 35052 ft | 533 kts | 153° |
| 2026-04-25 01:05 | 35.22886 | -119.77160 | 34289 ft | 533 kts | 150° |
| 2026-04-25 01:05 | 35.20003 | -119.74345 | 33759 ft | 525 kts | 150° |
| 2026-04-25 01:05 | 35.17244 | -119.71633 | 32762 ft | 511 kts | 150° |
| 2026-04-25 01:05 | 35.14458 | -119.68947 | 31227 ft | 512 kts | 150° |
| 2026-04-25 01:06 | 35.11645 | -119.66298 | 30449 ft | 511 kts | 150° |
| 2026-04-25 01:06 | 35.08846 | -119.63691 | 29812 ft | 507 kts | 150° |
| 2026-04-25 01:06 | 35.06025 | -119.61075 | 29094 ft | 504 kts | 150° |
| 2026-04-25 01:06 | 35.03245 | -119.58496 | 28463 ft | 499 kts | 150° |
| 2026-04-25 01:07 | 35.00494 | -119.55944 | 27851 ft | 494 kts | 150° |
| 2026-04-25 01:07 | 34.97774 | -119.53421 | 27248 ft | 490 kts | 150° |
| 2026-04-25 01:07 | 34.95069 | -119.50913 | 26648 ft | 486 kts | 150° |
| 2026-04-25 01:07 | 34.92383 | -119.48425 | 26047 ft | 483 kts | 150° |
| 2026-04-25 01:08 | 34.89708 | -119.45970 | 25529 ft | 479 kts | 150° |
| 2026-04-25 01:08 | 34.87025 | -119.43565 | 25064 ft | 481 kts | 151° |
| 2026-04-25 01:08 | 34.84301 | -119.41147 | 24605 ft | 486 kts | 150° |
| 2026-04-25 01:08 | 34.81612 | -119.38758 | 24146 ft | 485 kts | 150° |
| 2026-04-25 01:09 | 34.78905 | -119.36339 | 23659 ft | 481 kts | 150° |
| 2026-04-25 01:09 | 34.76196 | -119.33917 | 23103 ft | 476 kts | 150° |
| 2026-04-25 01:09 | 34.73569 | -119.31579 | 22649 ft | 468 kts | 150° |
| 2026-04-25 01:09 | 34.70973 | -119.29305 | 22308 ft | 458 kts | 151° |
| 2026-04-25 01:10 | 34.68409 | -119.27073 | 22009 ft | 448 kts | 151° |
| 2026-04-25 01:10 | 34.65926 | -119.24904 | 21686 ft | 426 kts | 151° |
| 2026-04-25 01:10 | 34.63548 | -119.22834 | 20894 ft | 411 kts | 151° |
| 2026-04-25 01:10 | 34.61244 | -119.20854 | 20451 ft | 405 kts | 151° |
| 2026-04-25 01:11 | 34.58936 | -119.18874 | 20041 ft | 405 kts | 151° |
| 2026-04-25 01:11 | 34.56635 | -119.16899 | 19610 ft | 404 kts | 151° |
| 2026-04-25 01:11 | 34.54358 | -119.14912 | 19215 ft | 402 kts | 150° |
| 2026-04-25 01:11 | 34.52108 | -119.12913 | 18829 ft | 400 kts | 149° |
| 2026-04-25 01:12 | 34.49853 | -119.10904 | 18432 ft | 399 kts | 149° |
| 2026-04-25 01:12 | 34.47620 | -119.08922 | 17968 ft | 397 kts | 149° |
| 2026-04-25 01:12 | 34.45417 | -119.06973 | 17563 ft | 394 kts | 149° |
| 2026-04-25 01:12 | 34.43196 | -119.05018 | 16964 ft | 395 kts | 149° |
| 2026-04-25 01:13 | 34.40954 | -119.03076 | 16422 ft | 395 kts | 149° |
| 2026-04-25 01:13 | 34.38719 | -119.01146 | 15971 ft | 393 kts | 149° |
| 2026-04-25 01:13 | 34.36503 | -118.99231 | 15550 ft | 389 kts | 149° |
| 2026-04-25 01:13 | 34.34310 | -118.97334 | 15102 ft | 386 kts | 148° |
| 2026-04-25 01:14 | 34.32152 | -118.95409 | 14686 ft | 384 kts | 147° |
| 2026-04-25 01:14 | 34.30033 | -118.93470 | 14278 ft | 381 kts | 146° |
| 2026-04-25 01:14 | 34.27929 | -118.91549 | 13822 ft | 379 kts | 146° |
| 2026-04-25 01:14 | 34.25833 | -118.89644 | 13392 ft | 375 kts | 146° |
| 2026-04-25 01:15 | 34.23765 | -118.87755 | 12954 ft | 371 kts | 146° |
| 2026-04-25 01:15 | 34.21801 | -118.85947 | 12686 ft | 364 kts | 146° |
| 2026-04-25 01:15 | 34.19791 | -118.84094 | 12397 ft | 344 kts | 146° |
| 2026-04-25 01:15 | 34.17965 | -118.82412 | 12232 ft | 316 kts | 146° |
| 2026-04-25 01:16 | 34.16255 | -118.80833 | 12059 ft | 306 kts | 144° |
| 2026-04-25 01:16 | 34.14654 | -118.79176 | 11722 ft | 307 kts | 141° |
| 2026-04-25 01:16 | 34.13085 | -118.77439 | 11398 ft | 305 kts | 140° |
| 2026-04-25 01:16 | 34.11528 | -118.75707 | 11073 ft | 303 kts | 140° |
| 2026-04-25 01:17 | 34.09977 | -118.73995 | 10754 ft | 302 kts | 140° |
| 2026-04-25 01:17 | 34.08927 | -118.72845 | 10521 ft | 301 kts | 140° |
| 2026-04-25 01:17 | 34.06871 | -118.70609 | 10193 ft | 296 kts | 140° |
| 2026-04-25 01:17 | 34.05362 | -118.68969 | 10082 ft | 288 kts | 140° |
| 2026-04-25 01:18 | 34.03897 | -118.67351 | 9800 ft | 284 kts | 135° |
| 2026-04-25 01:18 | 34.02903 | -118.65324 | 9486 ft | 283 kts | 106° |
| 2026-04-25 01:18 | 34.02610 | -118.63022 | 9205 ft | 277 kts | 96° |
| 2026-04-25 01:18 | 34.02412 | -118.60694 | 8911 ft | 279 kts | 96° |
| 2026-04-25 01:19 | 34.02199 | -118.58345 | 8618 ft | 285 kts | 97° |
| 2026-04-25 01:19 | 34.01981 | -118.55989 | 8311 ft | 287 kts | 97° |
| 2026-04-25 01:19 | 34.01759 | -118.53597 | 7997 ft | 287 kts | 97° |
| 2026-04-25 01:19 | 34.01538 | -118.51231 | 7855 ft | 279 kts | 97° |
| 2026-04-25 01:20 | 34.01323 | -118.48945 | 7739 ft | 270 kts | 97° |
| 2026-04-25 01:20 | 34.01111 | -118.46703 | 7473 ft | 268 kts | 97° |
| 2026-04-25 01:20 | 34.01123 | -118.44498 | 7171 ft | 261 kts | 81° |
| 2026-04-25 01:20 | 34.01494 | -118.42385 | 6910 ft | 259 kts | 77° |
| 2026-04-25 01:21 | 34.01901 | -118.40279 | 6628 ft | 258 kts | 78° |
| 2026-04-25 01:21 | 34.02286 | -118.38186 | 6383 ft | 254 kts | 78° |
| 2026-04-25 01:21 | 34.02659 | -118.36092 | 6055 ft | 254 kts | 78° |
| 2026-04-25 01:21 | 34.02942 | -118.34042 | 6006 ft | 241 kts | 84° |
| 2026-04-25 01:22 | 34.03137 | -118.32054 | 5997 ft | 237 kts | 84° |
| 2026-04-25 01:22 | 34.03326 | -118.30094 | 5977 ft | 233 kts | 84° |
| 2026-04-25 01:22 | 34.03514 | -118.28121 | 5707 ft | 240 kts | 84° |
| 2026-04-25 01:22 | 34.03701 | -118.26109 | 5439 ft | 242 kts | 85° |
| 2026-04-25 01:23 | 34.03875 | -118.24140 | 5173 ft | 235 kts | 85° |
| 2026-04-25 01:23 | 34.04042 | -118.22233 | 4946 ft | 222 kts | 85° |
| 2026-04-25 01:23 | 34.04206 | -118.20376 | 4791 ft | 223 kts | 84° |
| 2026-04-25 01:23 | 34.04380 | -118.18513 | 4615 ft | 223 kts | 84° |
| 2026-04-25 01:24 | 34.04548 | -118.16663 | 4551 ft | 221 kts | 85° |
| 2026-04-25 01:24 | 34.04710 | -118.14815 | 4543 ft | 222 kts | 85° |
| 2026-04-25 01:24 | 34.04598 | -118.12981 | 4306 ft | 222 kts | 112° |
| 2026-04-25 01:24 | 34.03692 | -118.11537 | 4049 ft | 216 kts | 147° |
| 2026-04-25 01:25 | 34.02357 | -118.10762 | 3818 ft | 213 kts | 160° |
| 2026-04-25 01:25 | 34.00963 | -118.10216 | 3641 ft | 209 kts | 173° |
| 2026-04-25 01:25 | 33.99560 | -118.10497 | 3591 ft | 207 kts | 209° |
| 2026-04-25 01:25 | 33.98508 | -118.11653 | 3607 ft | 204 kts | 230° |
| 2026-04-25 01:26 | 33.97653 | -118.12966 | 3571 ft | 198 kts | 231° |
| 2026-04-25 01:26 | 33.96823 | -118.14250 | 3576 ft | 191 kts | 231° |
| 2026-04-25 01:26 | 33.96202 | -118.15638 | 3579 ft | 189 kts | 255° |
| 2026-04-25 01:26 | 33.95937 | -118.17190 | 3542 ft | 193 kts | 258° |
| 2026-04-25 01:27 | 33.95729 | -118.18791 | 3282 ft | 191 kts | 261° |
| 2026-04-25 01:27 | 33.95560 | -118.20364 | 3031 ft | 188 kts | 261° |
| 2026-04-25 01:27 | 33.95403 | -118.21892 | 2789 ft | 178 kts | 261° |
| 2026-04-25 01:28 | 33.95129 | -118.24611 | 2365 ft | 155 kts | 261° |
| 2026-04-25 01:28 | 33.94994 | -118.25920 | 2164 ft | 158 kts | 261° |
| 2026-04-25 01:28 | 33.94855 | -118.27271 | 1942 ft | 165 kts | 261° |
| 2026-04-25 01:28 | 33.94719 | -118.28627 | 1717 ft | 161 kts | 260° |
| 2026-04-25 01:29 | 33.94589 | -118.29908 | 1494 ft | 148 kts | 261° |
| 2026-04-25 01:29 | 33.94468 | -118.31096 | 1298 ft | 137 kts | 261° |
| 2026-04-25 01:29 | 33.94352 | -118.32220 | 1130 ft | 137 kts | 262° |
| 2026-04-25 01:29 | 33.94276 | -118.32971 | 1007 ft | 138 kts | 262° |
| 2026-04-25 01:30 | 33.94122 | -118.34484 | 784 ft | 138 kts | 263° |
| 2026-04-25 01:30 | 33.94043 | -118.35257 | 639 ft | 139 kts | 263° |
| 2026-04-25 01:30 | 33.93930 | -118.36371 | 466 ft | 131 kts | 263° |
| 2026-04-25 01:30 | 33.93823 | -118.37460 | 262 ft | 130 kts | 263° |
| 2026-04-25 01:31 | 33.93682 | -118.38852 | 116 ft | 119 kts | 261° |
| 2026-04-25 01:31 | 33.93591 | -118.39712 | 115 ft | 82 kts | 263° |
| 2026-04-25 01:31 | 33.93544 | -118.40182 | 116 ft | 40 kts | 263° |
| 2026-04-25 01:31 | 33.93540 | -118.40438 | 114 ft | 26 kts | 276° |
| 2026-04-25 01:32 | 33.93569 | -118.40563 | 110 ft | 21 kts | 292° |
| 2026-04-25 01:32 | 33.93593 | -118.40703 | 111 ft | 14 kts | 266° |
| 2026-04-25 01:32 | 33.93589 | -118.40784 | 110 ft | 9 kts | 266° |
| 2026-04-25 01:32 | 33.93597 | -118.40857 | 109 ft | 11 kts | 298° |
| 2026-04-25 01:33 | 33.93682 | -118.40898 | 110 ft | 9 kts | 351° |
| 2026-04-25 01:33 | 33.93740 | -118.40908 | 108 ft | 8 kts | 352° |
| 2026-04-25 01:33 | 33.93785 | -118.40887 | 108 ft | 9 kts | 57° |
| 2026-04-25 01:33 | 33.93796 | -118.40810 | 109 ft | 9 kts | 81° |
| 2026-04-25 01:34 | 33.93806 | -118.40729 | 107 ft | 12 kts | 83° |
| 2026-04-25 01:34 | 33.93818 | -118.40606 | 107 ft | 14 kts | 84° |
| 2026-04-25 01:34 | 33.93828 | -118.40492 | 108 ft | 14 kts | 83° |
| 2026-04-25 01:34 | 33.93839 | -118.40380 | 108 ft | 14 kts | 82° |
| 2026-04-25 01:35 | 33.93851 | -118.40266 | 109 ft | 15 kts | 83° |
| 2026-04-25 01:35 | 33.93861 | -118.40172 | 109 ft | 10 kts | 84° |
| 2026-04-25 01:35 | 33.93864 | -118.40131 | 109 ft | 0 kts | 84° |
| 2026-04-25 01:40 | 33.93864 | -118.40130 | 109 ft | 0 kts | 84° |
| 2026-04-25 01:40 | 33.93867 | -118.40097 | 109 ft | 8 kts | 84° |
| 2026-04-25 01:40 | 33.93892 | -118.40056 | 107 ft | 6 kts | 24° |
| 2026-04-25 01:41 | 33.93947 | -118.40056 | 104 ft | 7 kts | 347° |
| 2026-04-25 01:41 | 33.93989 | -118.40095 | 103 ft | 8 kts | 312° |
| 2026-04-25 01:41 | 33.94007 | -118.40124 | 103 ft | 0 kts | 308° |
| 2026-04-25 01:41 | 33.94008 | -118.40125 | 103 ft | 0 kts | 308° |